sensor_id;sensor_type;location;lat;lon;timestamp;P1;durP1;ratioP1;P2;durP2;ratioP2
57241;SDS011;43095;53.302;5.786;2023-08-12T00:02:09;12.45;;;7.80;;
57241;SDS011;43095;53.302;5.786;2023-08-12T00:04:36;15.20;;;7.95;;
57241;SDS011;43095;53.302;5.786;2023-08-12T00:07:02;12.48;;;7.97;;
57241;SDS011;43095;53.302;5.786;2023-08-12T00:09:29;10.95;;;6.75;;
57241;SDS011;43095;53.302;5.786;2023-08-12T00:11:56;14.25;;;7.75;;
57241;SDS011;43095;53.302;5.786;2023-08-12T00:14:23;14.45;;;7.72;;
57241;SDS011;43095;53.302;5.786;2023-08-12T00:16:51;12.07;;;7.43;;
57241;SDS011;43095;53.302;5.786;2023-08-12T00:19:18;14.90;;;6.90;;
57241;SDS011;43095;53.302;5.786;2023-08-12T00:21:45;13.50;;;7.00;;
57241;SDS011;43095;53.302;5.786;2023-08-12T00:24:12;12.70;;;6.95;;
57241;SDS011;43095;53.302;5.786;2023-08-12T00:26:39;10.05;;;6.70;;
57241;SDS011;43095;53.302;5.786;2023-08-12T00:29:06;12.20;;;6.63;;
57241;SDS011;43095;53.302;5.786;2023-08-12T00:31:32;16.67;;;7.25;;
57241;SDS011;43095;53.302;5.786;2023-08-12T00:34:00;10.57;;;6.68;;
57241;SDS011;43095;53.302;5.786;2023-08-12T00:36:26;13.40;;;7.15;;
57241;SDS011;43095;53.302;5.786;2023-08-12T00:38:54;15.93;;;7.00;;
57241;SDS011;43095;53.302;5.786;2023-08-12T00:41:22;11.35;;;5.70;;
57241;SDS011;43095;53.302;5.786;2023-08-12T00:43:49;12.15;;;6.30;;
57241;SDS011;43095;53.302;5.786;2023-08-12T00:46:16;11.85;;;6.32;;
57241;SDS011;43095;53.302;5.786;2023-08-12T00:48:44;14.65;;;6.32;;
57241;SDS011;43095;53.302;5.786;2023-08-12T00:51:11;14.60;;;6.10;;
57241;SDS011;43095;53.302;5.786;2023-08-12T00:53:40;10.55;;;5.93;;
57241;SDS011;43095;53.302;5.786;2023-08-12T00:56:07;13.43;;;6.47;;
57241;SDS011;43095;53.302;5.786;2023-08-12T00:58:34;9.75;;;4.97;;
57241;SDS011;43095;53.302;5.786;2023-08-12T01:01:01;12.60;;;6.75;;
57241;SDS011;43095;53.302;5.786;2023-08-12T01:03:28;12.80;;;5.53;;
57241;SDS011;43095;53.302;5.786;2023-08-12T01:05:55;9.52;;;4.72;;
57241;SDS011;43095;53.302;5.786;2023-08-12T01:08:24;11.40;;;5.25;;
57241;SDS011;43095;53.302;5.786;2023-08-12T01:10:58;10.43;;;4.82;;
57241;SDS011;43095;53.302;5.786;2023-08-12T01:16:19;9.18;;;4.40;;
57241;SDS011;43095;53.302;5.786;2023-08-12T01:18:47;10.07;;;4.68;;
57241;SDS011;43095;53.302;5.786;2023-08-12T01:21:16;12.13;;;4.55;;
57241;SDS011;43095;53.302;5.786;2023-08-12T01:23:45;10.80;;;5.55;;
57241;SDS011;43095;53.302;5.786;2023-08-12T01:26:13;11.95;;;5.43;;
57241;SDS011;43095;53.302;5.786;2023-08-12T01:28:40;12.48;;;5.90;;
57241;SDS011;43095;53.302;5.786;2023-08-12T01:31:42;16.63;;;5.97;;
57241;SDS011;43095;53.302;5.786;2023-08-12T01:34:11;13.60;;;5.30;;
57241;SDS011;43095;53.302;5.786;2023-08-12T01:36:42;10.27;;;5.20;;
57241;SDS011;43095;53.302;5.786;2023-08-12T01:39:13;10.48;;;5.38;;
57241;SDS011;43095;53.302;5.786;2023-08-12T01:41:42;8.48;;;5.68;;
57241;SDS011;43095;53.302;5.786;2023-08-12T01:44:09;11.30;;;5.32;;
57241;SDS011;43095;53.302;5.786;2023-08-12T01:46:36;9.40;;;5.18;;
57241;SDS011;43095;53.302;5.786;2023-08-12T01:49:03;15.63;;;5.80;;
57241;SDS011;43095;53.302;5.786;2023-08-12T01:51:30;10.38;;;5.18;;
57241;SDS011;43095;53.302;5.786;2023-08-12T01:53:58;11.70;;;5.22;;
57241;SDS011;43095;53.302;5.786;2023-08-12T01:56:27;14.55;;;5.55;;
57241;SDS011;43095;53.302;5.786;2023-08-12T01:58:55;10.80;;;4.75;;
57241;SDS011;43095;53.302;5.786;2023-08-12T02:01:24;8.18;;;5.05;;
57241;SDS011;43095;53.302;5.786;2023-08-12T02:03:53;13.55;;;5.47;;
57241;SDS011;43095;53.302;5.786;2023-08-12T02:06:21;11.80;;;5.95;;
57241;SDS011;43095;53.302;5.786;2023-08-12T02:08:52;12.43;;;6.57;;
57241;SDS011;43095;53.302;5.786;2023-08-12T02:11:18;9.82;;;5.68;;
57241;SDS011;43095;53.302;5.786;2023-08-12T02:13:45;11.32;;;6.72;;
57241;SDS011;43095;53.302;5.786;2023-08-12T02:16:12;14.00;;;6.60;;
57241;SDS011;43095;53.302;5.786;2023-08-12T02:18:39;12.20;;;6.25;;
57241;SDS011;43095;53.302;5.786;2023-08-12T02:21:06;12.25;;;6.25;;
57241;SDS011;43095;53.302;5.786;2023-08-12T02:23:33;13.23;;;6.82;;
57241;SDS011;43095;53.302;5.786;2023-08-12T02:26:01;11.48;;;5.97;;
57241;SDS011;43095;53.302;5.786;2023-08-12T02:28:29;15.25;;;7.18;;
57241;SDS011;43095;53.302;5.786;2023-08-12T02:30:56;10.07;;;6.28;;
57241;SDS011;43095;53.302;5.786;2023-08-12T02:33:22;14.30;;;7.35;;
57241;SDS011;43095;53.302;5.786;2023-08-12T02:35:52;14.00;;;7.45;;
57241;SDS011;43095;53.302;5.786;2023-08-12T02:38:20;12.52;;;7.43;;
57241;SDS011;43095;53.302;5.786;2023-08-12T02:40:50;11.43;;;6.53;;
57241;SDS011;43095;53.302;5.786;2023-08-12T02:43:17;15.95;;;7.57;;
57241;SDS011;43095;53.302;5.786;2023-08-12T02:45:44;17.30;;;8.25;;
57241;SDS011;43095;53.302;5.786;2023-08-12T02:48:11;12.82;;;7.72;;
57241;SDS011;43095;53.302;5.786;2023-08-12T02:50:38;14.40;;;8.43;;
57241;SDS011;43095;53.302;5.786;2023-08-12T02:53:06;15.63;;;7.80;;
57241;SDS011;43095;53.302;5.786;2023-08-12T02:55:33;16.48;;;6.78;;
57241;SDS011;43095;53.302;5.786;2023-08-12T02:58:00;12.73;;;6.63;;
57241;SDS011;43095;53.302;5.786;2023-08-12T03:00:27;11.57;;;7.22;;
57241;SDS011;43095;53.302;5.786;2023-08-12T03:02:55;18.80;;;8.73;;
57241;SDS011;43095;53.302;5.786;2023-08-12T03:05:22;18.25;;;8.90;;
57241;SDS011;43095;53.302;5.786;2023-08-12T03:07:50;16.95;;;8.00;;
57241;SDS011;43095;53.302;5.786;2023-08-12T03:10:21;20.63;;;9.43;;
57241;SDS011;43095;53.302;5.786;2023-08-12T03:12:48;15.70;;;9.45;;
57241;SDS011;43095;53.302;5.786;2023-08-12T03:15:16;16.05;;;9.63;;
57241;SDS011;43095;53.302;5.786;2023-08-12T03:17:43;15.65;;;9.18;;
57241;SDS011;43095;53.302;5.786;2023-08-12T03:20:11;15.45;;;7.90;;
57241;SDS011;43095;53.302;5.786;2023-08-12T03:22:40;16.55;;;8.88;;
57241;SDS011;43095;53.302;5.786;2023-08-12T03:25:08;12.85;;;8.02;;
57241;SDS011;43095;53.302;5.786;2023-08-12T03:27:35;15.30;;;8.52;;
57241;SDS011;43095;53.302;5.786;2023-08-12T03:30:03;16.00;;;8.75;;
57241;SDS011;43095;53.302;5.786;2023-08-12T03:32:31;15.18;;;8.60;;
57241;SDS011;43095;53.302;5.786;2023-08-12T03:34:58;16.70;;;8.95;;
57241;SDS011;43095;53.302;5.786;2023-08-12T03:37:26;13.50;;;8.32;;
57241;SDS011;43095;53.302;5.786;2023-08-12T03:39:53;17.17;;;8.93;;
57241;SDS011;43095;53.302;5.786;2023-08-12T03:42:20;14.60;;;8.18;;
57241;SDS011;43095;53.302;5.786;2023-08-12T03:44:48;14.15;;;8.60;;
57241;SDS011;43095;53.302;5.786;2023-08-12T03:47:15;16.23;;;9.13;;
57241;SDS011;43095;53.302;5.786;2023-08-12T03:49:48;13.95;;;8.73;;
57241;SDS011;43095;53.302;5.786;2023-08-12T03:52:15;16.13;;;9.30;;
57241;SDS011;43095;53.302;5.786;2023-08-12T03:54:42;14.15;;;8.52;;
57241;SDS011;43095;53.302;5.786;2023-08-12T03:57:09;14.40;;;8.27;;
57241;SDS011;43095;53.302;5.786;2023-08-12T03:59:36;15.80;;;8.75;;
57241;SDS011;43095;53.302;5.786;2023-08-12T04:02:03;15.98;;;9.73;;
57241;SDS011;43095;53.302;5.786;2023-08-12T04:04:33;14.63;;;9.38;;
57241;SDS011;43095;53.302;5.786;2023-08-12T04:07:00;14.23;;;9.55;;
57241;SDS011;43095;53.302;5.786;2023-08-12T04:09:27;15.15;;;8.85;;
57241;SDS011;43095;53.302;5.786;2023-08-12T04:11:54;14.68;;;8.75;;
57241;SDS011;43095;53.302;5.786;2023-08-12T04:14:21;17.25;;;8.95;;
57241;SDS011;43095;53.302;5.786;2023-08-12T04:16:48;16.75;;;9.80;;
57241;SDS011;43095;53.302;5.786;2023-08-12T04:19:16;14.20;;;8.88;;
57241;SDS011;43095;53.302;5.786;2023-08-12T04:21:43;16.30;;;8.80;;
57241;SDS011;43095;53.302;5.786;2023-08-12T04:24:13;14.10;;;8.93;;
57241;SDS011;43095;53.302;5.786;2023-08-12T04:26:40;17.70;;;10.95;;
57241;SDS011;43095;53.302;5.786;2023-08-12T04:29:07;15.55;;;9.20;;
57241;SDS011;43095;53.302;5.786;2023-08-12T04:31:37;13.52;;;9.50;;
57241;SDS011;43095;53.302;5.786;2023-08-12T04:34:05;17.60;;;9.38;;
57241;SDS011;43095;53.302;5.786;2023-08-12T04:36:32;19.42;;;9.68;;
57241;SDS011;43095;53.302;5.786;2023-08-12T04:39:01;16.95;;;9.63;;
57241;SDS011;43095;53.302;5.786;2023-08-12T04:41:29;16.35;;;8.82;;
57241;SDS011;43095;53.302;5.786;2023-08-12T04:44:00;16.23;;;9.18;;
57241;SDS011;43095;53.302;5.786;2023-08-12T04:46:29;12.75;;;8.82;;
57241;SDS011;43095;53.302;5.786;2023-08-12T04:48:56;14.63;;;8.13;;
57241;SDS011;43095;53.302;5.786;2023-08-12T04:51:23;17.38;;;9.00;;
57241;SDS011;43095;53.302;5.786;2023-08-12T04:53:50;15.05;;;8.90;;
57241;SDS011;43095;53.302;5.786;2023-08-12T04:56:16;16.92;;;9.80;;
57241;SDS011;43095;53.302;5.786;2023-08-12T04:58:44;17.58;;;9.32;;
57241;SDS011;43095;53.302;5.786;2023-08-12T05:01:11;16.60;;;8.57;;
57241;SDS011;43095;53.302;5.786;2023-08-12T05:03:38;18.35;;;10.88;;
57241;SDS011;43095;53.302;5.786;2023-08-12T05:06:07;19.10;;;9.73;;
57241;SDS011;43095;53.302;5.786;2023-08-12T05:08:34;15.70;;;8.80;;
57241;SDS011;43095;53.302;5.786;2023-08-12T05:11:09;14.10;;;9.02;;
57241;SDS011;43095;53.302;5.786;2023-08-12T05:13:39;15.18;;;9.45;;
57241;SDS011;43095;53.302;5.786;2023-08-12T05:16:19;16.20;;;9.00;;
57241;SDS011;43095;53.302;5.786;2023-08-12T05:18:48;12.20;;;8.48;;
57241;SDS011;43095;53.302;5.786;2023-08-12T05:21:16;19.13;;;9.10;;
57241;SDS011;43095;53.302;5.786;2023-08-12T05:23:46;19.30;;;8.80;;
57241;SDS011;43095;53.302;5.786;2023-08-12T05:26:13;15.63;;;9.13;;
57241;SDS011;43095;53.302;5.786;2023-08-12T05:28:40;13.88;;;8.55;;
57241;SDS011;43095;53.302;5.786;2023-08-12T05:31:07;13.63;;;8.18;;
57241;SDS011;43095;53.302;5.786;2023-08-12T05:33:34;13.63;;;7.53;;
57241;SDS011;43095;53.302;5.786;2023-08-12T05:36:02;16.52;;;8.45;;
57241;SDS011;43095;53.302;5.786;2023-08-12T05:38:32;13.43;;;8.30;;
57241;SDS011;43095;53.302;5.786;2023-08-12T05:40:59;15.55;;;8.45;;
57241;SDS011;43095;53.302;5.786;2023-08-12T05:43:25;18.17;;;8.35;;
57241;SDS011;43095;53.302;5.786;2023-08-12T05:45:52;14.45;;;8.15;;
57241;SDS011;43095;53.302;5.786;2023-08-12T05:48:19;15.88;;;8.82;;
57241;SDS011;43095;53.302;5.786;2023-08-12T05:50:46;13.77;;;9.52;;
57241;SDS011;43095;53.302;5.786;2023-08-12T05:53:12;15.73;;;8.52;;
57241;SDS011;43095;53.302;5.786;2023-08-12T05:55:39;16.08;;;9.52;;
57241;SDS011;43095;53.302;5.786;2023-08-12T05:58:07;19.60;;;10.13;;
57241;SDS011;43095;53.302;5.786;2023-08-12T06:00:33;18.17;;;9.63;;
57241;SDS011;43095;53.302;5.786;2023-08-12T06:03:00;22.17;;;9.95;;
57241;SDS011;43095;53.302;5.786;2023-08-12T06:05:27;17.67;;;9.70;;
57241;SDS011;43095;53.302;5.786;2023-08-12T06:07:54;15.65;;;9.35;;
57241;SDS011;43095;53.302;5.786;2023-08-12T06:10:23;16.42;;;9.23;;
57241;SDS011;43095;53.302;5.786;2023-08-12T06:12:50;21.05;;;10.73;;
57241;SDS011;43095;53.302;5.786;2023-08-12T06:15:17;20.52;;;10.57;;
57241;SDS011;43095;53.302;5.786;2023-08-12T06:17:44;17.38;;;10.88;;
57241;SDS011;43095;53.302;5.786;2023-08-12T06:20:11;19.35;;;9.90;;
57241;SDS011;43095;53.302;5.786;2023-08-12T06:22:38;17.25;;;10.93;;
57241;SDS011;43095;53.302;5.786;2023-08-12T06:25:05;22.10;;;10.43;;
57241;SDS011;43095;53.302;5.786;2023-08-12T06:27:32;22.50;;;11.05;;
57241;SDS011;43095;53.302;5.786;2023-08-12T06:29:59;19.27;;;9.88;;
57241;SDS011;43095;53.302;5.786;2023-08-12T06:32:26;17.45;;;11.10;;
57241;SDS011;43095;53.302;5.786;2023-08-12T06:34:53;18.05;;;10.45;;
57241;SDS011;43095;53.302;5.786;2023-08-12T06:37:23;21.52;;;10.68;;
57241;SDS011;43095;53.302;5.786;2023-08-12T06:39:49;23.65;;;11.77;;
57241;SDS011;43095;53.302;5.786;2023-08-12T06:42:17;19.83;;;12.20;;
57241;SDS011;43095;53.302;5.786;2023-08-12T06:44:44;24.02;;;11.82;;
57241;SDS011;43095;53.302;5.786;2023-08-12T06:47:11;18.40;;;11.90;;
57241;SDS011;43095;53.302;5.786;2023-08-12T06:49:39;19.40;;;11.27;;
57241;SDS011;43095;53.302;5.786;2023-08-12T06:52:06;23.15;;;12.98;;
57241;SDS011;43095;53.302;5.786;2023-08-12T06:54:33;20.60;;;12.80;;
57241;SDS011;43095;53.302;5.786;2023-08-12T06:57:01;19.70;;;12.88;;
57241;SDS011;43095;53.302;5.786;2023-08-12T06:59:30;24.52;;;13.15;;
57241;SDS011;43095;53.302;5.786;2023-08-12T07:01:57;21.67;;;13.40;;
57241;SDS011;43095;53.302;5.786;2023-08-12T07:04:24;20.05;;;13.27;;
57241;SDS011;43095;53.302;5.786;2023-08-12T07:06:51;23.40;;;12.88;;
57241;SDS011;43095;53.302;5.786;2023-08-12T07:09:20;23.45;;;14.13;;
57241;SDS011;43095;53.302;5.786;2023-08-12T07:11:48;19.38;;;12.93;;
57241;SDS011;43095;53.302;5.786;2023-08-12T07:14:15;20.23;;;11.75;;
57241;SDS011;43095;53.302;5.786;2023-08-12T07:16:42;22.95;;;13.13;;
57241;SDS011;43095;53.302;5.786;2023-08-12T07:19:12;24.27;;;13.93;;
57241;SDS011;43095;53.302;5.786;2023-08-12T07:21:42;19.17;;;12.55;;
57241;SDS011;43095;53.302;5.786;2023-08-12T07:24:09;20.52;;;11.80;;
57241;SDS011;43095;53.302;5.786;2023-08-12T07:26:36;20.08;;;13.27;;
57241;SDS011;43095;53.302;5.786;2023-08-12T07:29:08;24.25;;;12.93;;
57241;SDS011;43095;53.302;5.786;2023-08-12T07:31:35;22.00;;;13.25;;
57241;SDS011;43095;53.302;5.786;2023-08-12T07:34:01;18.30;;;12.30;;
57241;SDS011;43095;53.302;5.786;2023-08-12T07:36:28;21.60;;;12.63;;
57241;SDS011;43095;53.302;5.786;2023-08-12T07:38:55;24.02;;;13.38;;
57241;SDS011;43095;53.302;5.786;2023-08-12T07:41:22;19.90;;;12.25;;
57241;SDS011;43095;53.302;5.786;2023-08-12T07:43:49;19.00;;;12.05;;
57241;SDS011;43095;53.302;5.786;2023-08-12T07:46:16;19.67;;;13.68;;
57241;SDS011;43095;53.302;5.786;2023-08-12T07:48:42;17.52;;;12.63;;
57241;SDS011;43095;53.302;5.786;2023-08-12T07:51:09;19.42;;;12.85;;
57241;SDS011;43095;53.302;5.786;2023-08-12T07:53:37;25.27;;;14.18;;
57241;SDS011;43095;53.302;5.786;2023-08-12T07:56:03;26.02;;;13.82;;
57241;SDS011;43095;53.302;5.786;2023-08-12T07:58:30;22.67;;;13.10;;
57241;SDS011;43095;53.302;5.786;2023-08-12T08:00:57;21.60;;;14.55;;
57241;SDS011;43095;53.302;5.786;2023-08-12T08:03:24;19.88;;;13.65;;
57241;SDS011;43095;53.302;5.786;2023-08-12T08:05:51;23.70;;;14.85;;
57241;SDS011;43095;53.302;5.786;2023-08-12T08:08:18;26.13;;;13.40;;
57241;SDS011;43095;53.302;5.786;2023-08-12T08:10:46;23.67;;;15.60;;
57241;SDS011;43095;53.302;5.786;2023-08-12T08:13:13;25.50;;;16.42;;
57241;SDS011;43095;53.302;5.786;2023-08-12T08:15:40;22.65;;;15.18;;
57241;SDS011;43095;53.302;5.786;2023-08-12T08:18:07;25.92;;;16.27;;
57241;SDS011;43095;53.302;5.786;2023-08-12T08:20:34;25.17;;;15.60;;
57241;SDS011;43095;53.302;5.786;2023-08-12T08:23:01;24.90;;;16.20;;
57241;SDS011;43095;53.302;5.786;2023-08-12T08:25:29;24.40;;;16.08;;
57241;SDS011;43095;53.302;5.786;2023-08-12T08:27:56;24.73;;;17.05;;
57241;SDS011;43095;53.302;5.786;2023-08-12T08:30:23;24.27;;;15.23;;
57241;SDS011;43095;53.302;5.786;2023-08-12T08:32:51;30.15;;;17.65;;
57241;SDS011;43095;53.302;5.786;2023-08-12T08:35:18;30.92;;;18.42;;
57241;SDS011;43095;53.302;5.786;2023-08-12T08:37:48;25.20;;;17.17;;
57241;SDS011;43095;53.302;5.786;2023-08-12T08:40:15;24.85;;;18.75;;
57241;SDS011;43095;53.302;5.786;2023-08-12T08:42:44;32.75;;;19.10;;
57241;SDS011;43095;53.302;5.786;2023-08-12T08:45:12;27.92;;;19.83;;
57241;SDS011;43095;53.302;5.786;2023-08-12T08:47:41;30.83;;;18.02;;
57241;SDS011;43095;53.302;5.786;2023-08-12T08:50:09;29.65;;;19.90;;
57241;SDS011;43095;53.302;5.786;2023-08-12T08:52:37;30.60;;;18.35;;
57241;SDS011;43095;53.302;5.786;2023-08-12T08:55:04;32.67;;;20.90;;
57241;SDS011;43095;53.302;5.786;2023-08-12T08:57:33;35.20;;;21.13;;
57241;SDS011;43095;53.302;5.786;2023-08-12T09:00:03;26.67;;;18.10;;
57241;SDS011;43095;53.302;5.786;2023-08-12T09:02:42;28.33;;;19.63;;
57241;SDS011;43095;53.302;5.786;2023-08-12T09:05:11;29.17;;;19.77;;
57241;SDS011;43095;53.302;5.786;2023-08-12T09:07:39;32.92;;;22.00;;
57241;SDS011;43095;53.302;5.786;2023-08-12T09:10:07;32.28;;;21.83;;
57241;SDS011;43095;53.302;5.786;2023-08-12T09:12:34;36.70;;;22.38;;
57241;SDS011;43095;53.302;5.786;2023-08-12T09:15:01;31.27;;;21.25;;
57241;SDS011;43095;53.302;5.786;2023-08-12T09:17:28;27.55;;;20.60;;
57241;SDS011;43095;53.302;5.786;2023-08-12T09:19:55;27.30;;;20.58;;
57241;SDS011;43095;53.302;5.786;2023-08-12T09:22:23;30.50;;;21.80;;
57241;SDS011;43095;53.302;5.786;2023-08-12T09:24:58;30.10;;;22.55;;
57241;SDS011;43095;53.302;5.786;2023-08-12T09:27:25;32.22;;;21.65;;
57241;SDS011;43095;53.302;5.786;2023-08-12T09:29:55;26.30;;;20.00;;
57241;SDS011;43095;53.302;5.786;2023-08-12T09:32:23;28.70;;;20.88;;
57241;SDS011;43095;53.302;5.786;2023-08-12T09:34:52;28.38;;;20.85;;
57241;SDS011;43095;53.302;5.786;2023-08-12T09:37:20;27.05;;;18.55;;
57241;SDS011;43095;53.302;5.786;2023-08-12T09:39:50;22.40;;;16.45;;
57241;SDS011;43095;53.302;5.786;2023-08-12T09:42:18;20.55;;;14.65;;
57241;SDS011;43095;53.302;5.786;2023-08-12T09:44:49;19.58;;;12.75;;
57241;SDS011;43095;53.302;5.786;2023-08-12T09:47:20;17.35;;;11.77;;
57241;SDS011;43095;53.302;5.786;2023-08-12T09:49:47;17.58;;;11.40;;
57241;SDS011;43095;53.302;5.786;2023-08-12T09:52:14;16.73;;;10.45;;
57241;SDS011;43095;53.302;5.786;2023-08-12T09:54:52;9.05;;;4.25;;
57241;SDS011;43095;53.302;5.786;2023-08-12T09:57:35;9.43;;;3.63;;
57241;SDS011;43095;53.302;5.786;2023-08-12T10:00:04;13.15;;;4.07;;
57241;SDS011;43095;53.302;5.786;2023-08-12T10:02:52;11.93;;;3.83;;
57241;SDS011;43095;53.302;5.786;2023-08-12T10:05:31;9.40;;;3.67;;
57241;SDS011;43095;53.302;5.786;2023-08-12T10:08:01;6.00;;;3.63;;
57241;SDS011;43095;53.302;5.786;2023-08-12T10:10:34;7.57;;;3.83;;
57241;SDS011;43095;53.302;5.786;2023-08-12T10:13:01;9.05;;;3.55;;
57241;SDS011;43095;53.302;5.786;2023-08-12T10:15:29;9.50;;;3.53;;
57241;SDS011;43095;53.302;5.786;2023-08-12T10:17:58;6.53;;;2.10;;
57241;SDS011;43095;53.302;5.786;2023-08-12T10:20:27;9.18;;;2.20;;
57241;SDS011;43095;53.302;5.786;2023-08-12T10:22:54;9.48;;;2.00;;
57241;SDS011;43095;53.302;5.786;2023-08-12T10:25:21;6.55;;;2.05;;
57241;SDS011;43095;53.302;5.786;2023-08-12T10:27:52;6.63;;;2.17;;
57241;SDS011;43095;53.302;5.786;2023-08-12T10:30:32;5.43;;;1.85;;
57241;SDS011;43095;53.302;5.786;2023-08-12T10:33:00;8.15;;;2.28;;
57241;SDS011;43095;53.302;5.786;2023-08-12T10:35:40;9.00;;;2.55;;
57241;SDS011;43095;53.302;5.786;2023-08-12T10:38:08;7.82;;;2.33;;
57241;SDS011;43095;53.302;5.786;2023-08-12T10:40:35;8.30;;;2.80;;
57241;SDS011;43095;53.302;5.786;2023-08-12T10:43:02;10.10;;;3.10;;
57241;SDS011;43095;53.302;5.786;2023-08-12T10:48:28;9.65;;;2.90;;
57241;SDS011;43095;53.302;5.786;2023-08-12T10:50:56;9.50;;;3.35;;
57241;SDS011;43095;53.302;5.786;2023-08-12T10:53:25;9.25;;;3.05;;
57241;SDS011;43095;53.302;5.786;2023-08-12T10:56:01;8.68;;;3.17;;
57241;SDS011;43095;53.302;5.786;2023-08-12T10:58:29;11.80;;;4.25;;
57241;SDS011;43095;53.302;5.786;2023-08-12T11:01:00;7.37;;;3.23;;
57241;SDS011;43095;53.302;5.786;2023-08-12T11:03:31;10.73;;;3.47;;
57241;SDS011;43095;53.302;5.786;2023-08-12T11:06:03;12.65;;;3.70;;
57241;SDS011;43095;53.302;5.786;2023-08-12T11:08:30;8.63;;;3.28;;
57241;SDS011;43095;53.302;5.786;2023-08-12T11:10:56;11.30;;;3.63;;
57241;SDS011;43095;53.302;5.786;2023-08-12T11:13:26;13.07;;;4.03;;
57241;SDS011;43095;53.302;5.786;2023-08-12T11:16:04;13.88;;;3.65;;
57241;SDS011;43095;53.302;5.786;2023-08-12T11:18:33;14.57;;;3.85;;
57241;SDS011;43095;53.302;5.786;2023-08-12T11:21:01;15.05;;;4.53;;
57241;SDS011;43095;53.302;5.786;2023-08-12T11:23:29;10.93;;;3.58;;
57241;SDS011;43095;53.302;5.786;2023-08-12T11:25:56;10.50;;;3.60;;
57241;SDS011;43095;53.302;5.786;2023-08-12T11:28:24;11.85;;;3.33;;
57241;SDS011;43095;53.302;5.786;2023-08-12T11:30:51;13.25;;;3.30;;
57241;SDS011;43095;53.302;5.786;2023-08-12T11:33:18;10.85;;;3.33;;
57241;SDS011;43095;53.302;5.786;2023-08-12T11:35:45;10.32;;;2.85;;
57241;SDS011;43095;53.302;5.786;2023-08-12T11:38:12;12.52;;;3.63;;
57241;SDS011;43095;53.302;5.786;2023-08-12T11:40:39;10.85;;;2.90;;
57241;SDS011;43095;53.302;5.786;2023-08-12T11:43:06;8.20;;;2.92;;
57241;SDS011;43095;53.302;5.786;2023-08-12T11:45:33;16.65;;;3.55;;
57241;SDS011;43095;53.302;5.786;2023-08-12T11:48:00;12.65;;;3.63;;
57241;SDS011;43095;53.302;5.786;2023-08-12T11:50:27;14.10;;;3.67;;
57241;SDS011;43095;53.302;5.786;2023-08-12T11:52:57;7.40;;;3.30;;
57241;SDS011;43095;53.302;5.786;2023-08-12T11:55:25;11.30;;;2.92;;
57241;SDS011;43095;53.302;5.786;2023-08-12T11:57:52;11.52;;;3.63;;
57241;SDS011;43095;53.302;5.786;2023-08-12T12:00:21;10.20;;;3.70;;
57241;SDS011;43095;53.302;5.786;2023-08-12T12:02:54;10.45;;;3.80;;
57241;SDS011;43095;53.302;5.786;2023-08-12T12:05:25;11.50;;;4.50;;
57241;SDS011;43095;53.302;5.786;2023-08-12T12:08:01;13.50;;;4.20;;
57241;SDS011;43095;53.302;5.786;2023-08-12T12:10:39;11.45;;;4.20;;
57241;SDS011;43095;53.302;5.786;2023-08-12T12:13:11;14.95;;;5.28;;
57241;SDS011;43095;53.302;5.786;2023-08-12T12:15:42;15.48;;;4.85;;
57241;SDS011;43095;53.302;5.786;2023-08-12T12:18:12;11.55;;;3.60;;
57241;SDS011;43095;53.302;5.786;2023-08-12T12:20:53;13.43;;;3.92;;
57241;SDS011;43095;53.302;5.786;2023-08-12T12:23:29;16.90;;;4.20;;
57241;SDS011;43095;53.302;5.786;2023-08-12T12:26:01;16.15;;;4.40;;
57241;SDS011;43095;53.302;5.786;2023-08-12T12:28:29;15.57;;;4.22;;
57241;SDS011;43095;53.302;5.786;2023-08-12T12:31:03;11.00;;;3.88;;
57241;SDS011;43095;53.302;5.786;2023-08-12T12:33:33;15.32;;;4.35;;
57241;SDS011;43095;53.302;5.786;2023-08-12T12:36:02;12.65;;;4.55;;
57241;SDS011;43095;53.302;5.786;2023-08-12T12:38:33;14.32;;;3.78;;
57241;SDS011;43095;53.302;5.786;2023-08-12T12:41:04;10.82;;;3.38;;
57241;SDS011;43095;53.302;5.786;2023-08-12T12:43:31;11.07;;;3.97;;
57241;SDS011;43095;53.302;5.786;2023-08-12T12:46:02;14.93;;;4.25;;
57241;SDS011;43095;53.302;5.786;2023-08-12T12:48:35;15.52;;;3.60;;
57241;SDS011;43095;53.302;5.786;2023-08-12T12:51:02;12.32;;;4.03;;
57241;SDS011;43095;53.302;5.786;2023-08-12T12:53:29;15.18;;;4.20;;
57241;SDS011;43095;53.302;5.786;2023-08-12T12:56:00;11.60;;;2.90;;
57241;SDS011;43095;53.302;5.786;2023-08-12T12:58:31;14.10;;;3.72;;
57241;SDS011;43095;53.302;5.786;2023-08-12T13:01:00;14.15;;;3.67;;
57241;SDS011;43095;53.302;5.786;2023-08-12T13:03:27;18.77;;;4.15;;
57241;SDS011;43095;53.302;5.786;2023-08-12T13:06:00;9.80;;;2.80;;
57241;SDS011;43095;53.302;5.786;2023-08-12T13:08:29;14.40;;;3.45;;
57241;SDS011;43095;53.302;5.786;2023-08-12T13:10:59;10.82;;;3.22;;
57241;SDS011;43095;53.302;5.786;2023-08-12T13:13:30;9.43;;;2.20;;
57241;SDS011;43095;53.302;5.786;2023-08-12T13:15:58;8.02;;;2.70;;
57241;SDS011;43095;53.302;5.786;2023-08-12T13:18:26;10.90;;;2.85;;
57241;SDS011;43095;53.302;5.786;2023-08-12T13:20:57;13.63;;;3.00;;
57241;SDS011;43095;53.302;5.786;2023-08-12T13:23:27;13.57;;;3.30;;
57241;SDS011;43095;53.302;5.786;2023-08-12T13:25:54;12.07;;;2.88;;
57241;SDS011;43095;53.302;5.786;2023-08-12T13:28:22;11.77;;;3.45;;
57241;SDS011;43095;53.302;5.786;2023-08-12T13:30:55;13.15;;;3.15;;
57241;SDS011;43095;53.302;5.786;2023-08-12T13:33:24;9.05;;;3.05;;
57241;SDS011;43095;53.302;5.786;2023-08-12T13:35:51;9.45;;;2.60;;
57241;SDS011;43095;53.302;5.786;2023-08-12T13:38:18;6.07;;;2.03;;
57241;SDS011;43095;53.302;5.786;2023-08-12T13:40:51;13.48;;;3.22;;
57241;SDS011;43095;53.302;5.786;2023-08-12T13:43:18;9.32;;;3.10;;
57241;SDS011;43095;53.302;5.786;2023-08-12T13:45:45;7.93;;;3.35;;
57241;SDS011;43095;53.302;5.786;2023-08-12T13:48:12;9.77;;;3.03;;
57241;SDS011;43095;53.302;5.786;2023-08-12T13:50:39;11.57;;;3.58;;
57241;SDS011;43095;53.302;5.786;2023-08-12T13:53:06;10.63;;;2.95;;
57241;SDS011;43095;53.302;5.786;2023-08-12T13:55:33;13.60;;;3.33;;
57241;SDS011;43095;53.302;5.786;2023-08-12T13:57:59;10.63;;;2.70;;
57241;SDS011;43095;53.302;5.786;2023-08-12T14:00:26;11.93;;;3.30;;
57241;SDS011;43095;53.302;5.786;2023-08-12T14:02:53;13.57;;;3.28;;
57241;SDS011;43095;53.302;5.786;2023-08-12T14:05:20;11.05;;;3.22;;
57241;SDS011;43095;53.302;5.786;2023-08-12T14:07:47;14.52;;;4.28;;
57241;SDS011;43095;53.302;5.786;2023-08-12T14:10:14;12.20;;;3.38;;
57241;SDS011;43095;53.302;5.786;2023-08-12T14:12:41;12.52;;;3.50;;
57241;SDS011;43095;53.302;5.786;2023-08-12T14:15:08;14.32;;;3.53;;
57241;SDS011;43095;53.302;5.786;2023-08-12T14:17:35;12.82;;;3.38;;
57241;SDS011;43095;53.302;5.786;2023-08-12T14:20:03;10.77;;;3.30;;
57241;SDS011;43095;53.302;5.786;2023-08-12T14:22:34;12.38;;;3.20;;
57241;SDS011;43095;53.302;5.786;2023-08-12T14:25:02;9.95;;;3.10;;
57241;SDS011;43095;53.302;5.786;2023-08-12T14:27:31;13.38;;;3.33;;
57241;SDS011;43095;53.302;5.786;2023-08-12T14:29:58;10.52;;;3.10;;
57241;SDS011;43095;53.302;5.786;2023-08-12T14:32:25;13.48;;;3.75;;
57241;SDS011;43095;53.302;5.786;2023-08-12T14:34:52;11.05;;;3.47;;
57241;SDS011;43095;53.302;5.786;2023-08-12T14:37:19;13.25;;;3.03;;
57241;SDS011;43095;53.302;5.786;2023-08-12T14:39:46;12.32;;;2.90;;
57241;SDS011;43095;53.302;5.786;2023-08-12T14:42:13;12.43;;;3.05;;
57241;SDS011;43095;53.302;5.786;2023-08-12T14:44:40;15.75;;;3.72;;
57241;SDS011;43095;53.302;5.786;2023-08-12T14:47:07;14.52;;;3.85;;